sensor_id;sensor_type;location;lat;lon;timestamp;P1;durP1;ratioP1;P2;durP2;ratioP2
41633;SDS011;37274;51.150;4.808;2022-08-02T00:00:55;0.85;;;0.50;;
41633;SDS011;37274;51.150;4.808;2022-08-02T00:03:22;1.13;;;0.40;;
41633;SDS011;37274;51.150;4.808;2022-08-02T00:05:50;2.80;;;0.40;;
41633;SDS011;37274;51.150;4.808;2022-08-02T00:08:19;1.08;;;0.40;;
41633;SDS011;37274;51.150;4.808;2022-08-02T00:10:46;0.28;;;0.28;;
41633;SDS011;37274;51.150;4.808;2022-08-02T00:13:13;0.20;;;0.20;;
41633;SDS011;37274;51.150;4.808;2022-08-02T00:15:40;0.40;;;0.35;;
41633;SDS011;37274;51.150;4.808;2022-08-02T00:18:06;1.55;;;0.40;;
41633;SDS011;37274;51.150;4.808;2022-08-02T00:20:33;1.55;;;0.50;;
41633;SDS011;37274;51.150;4.808;2022-08-02T00:23:00;0.77;;;0.35;;
41633;SDS011;37274;51.150;4.808;2022-08-02T00:25:27;0.40;;;0.40;;
41633;SDS011;37274;51.150;4.808;2022-08-02T00:27:53;0.80;;;0.60;;
41633;SDS011;37274;51.150;4.808;2022-08-02T00:30:20;0.90;;;0.38;;
41633;SDS011;37274;51.150;4.808;2022-08-02T00:32:47;2.10;;;0.55;;
41633;SDS011;37274;51.150;4.808;2022-08-02T00:35:14;0.77;;;0.30;;
41633;SDS011;37274;51.150;4.808;2022-08-02T00:37:40;1.77;;;0.55;;
41633;SDS011;37274;51.150;4.808;2022-08-02T00:40:08;1.73;;;0.52;;
41633;SDS011;37274;51.150;4.808;2022-08-02T00:42:35;0.75;;;0.40;;
41633;SDS011;37274;51.150;4.808;2022-08-02T00:45:03;1.10;;;0.30;;
41633;SDS011;37274;51.150;4.808;2022-08-02T00:47:30;0.73;;;0.30;;
41633;SDS011;37274;51.150;4.808;2022-08-02T00:49:57;0.30;;;0.30;;
41633;SDS011;37274;51.150;4.808;2022-08-02T00:52:23;0.55;;;0.40;;
41633;SDS011;37274;51.150;4.808;2022-08-02T00:54:50;0.40;;;0.40;;
41633;SDS011;37274;51.150;4.808;2022-08-02T00:57:17;1.75;;;0.40;;
41633;SDS011;37274;51.150;4.808;2022-08-02T00:59:43;0.50;;;0.50;;
41633;SDS011;37274;51.150;4.808;2022-08-02T01:02:10;1.35;;;0.32;;
41633;SDS011;37274;51.150;4.808;2022-08-02T01:04:37;1.27;;;0.70;;
41633;SDS011;37274;51.150;4.808;2022-08-02T01:07:04;0.45;;;0.43;;
41633;SDS011;37274;51.150;4.808;2022-08-02T01:09:42;0.65;;;0.60;;
41633;SDS011;37274;51.150;4.808;2022-08-02T01:12:12;0.47;;;0.40;;
41633;SDS011;37274;51.150;4.808;2022-08-02T01:14:40;0.90;;;0.50;;
41633;SDS011;37274;51.150;4.808;2022-08-02T01:17:13;1.52;;;0.40;;
41633;SDS011;37274;51.150;4.808;2022-08-02T01:25:49;0.75;;;0.50;;
41633;SDS011;37274;51.150;4.808;2022-08-02T01:31:28;0.82;;;0.40;;
41633;SDS011;37274;51.150;4.808;2022-08-02T01:36:30;1.05;;;0.47;;
41633;SDS011;37274;51.150;4.808;2022-08-02T01:38:59;0.85;;;0.60;;
41633;SDS011;37274;51.150;4.808;2022-08-02T01:41:27;1.25;;;0.63;;
41633;SDS011;37274;51.150;4.808;2022-08-02T01:43:55;1.13;;;0.55;;
41633;SDS011;37274;51.150;4.808;2022-08-02T01:46:24;0.95;;;0.40;;
41633;SDS011;37274;51.150;4.808;2022-08-02T01:48:53;1.92;;;0.50;;
41633;SDS011;37274;51.150;4.808;2022-08-02T01:51:22;1.02;;;0.60;;
41633;SDS011;37274;51.150;4.808;2022-08-02T01:54:10;1.80;;;0.70;;
41633;SDS011;37274;51.150;4.808;2022-08-02T01:56:38;2.00;;;0.50;;
41633;SDS011;37274;51.150;4.808;2022-08-02T01:59:06;1.88;;;0.55;;
41633;SDS011;37274;51.150;4.808;2022-08-02T02:01:37;0.40;;;0.40;;
41633;SDS011;37274;51.150;4.808;2022-08-02T02:04:05;0.90;;;0.70;;
41633;SDS011;37274;51.150;4.808;2022-08-02T02:06:34;1.52;;;0.65;;
41633;SDS011;37274;51.150;4.808;2022-08-02T02:09:04;1.55;;;0.57;;
41633;SDS011;37274;51.150;4.808;2022-08-02T02:11:31;0.90;;;0.40;;
41633;SDS011;37274;51.150;4.808;2022-08-02T02:16:47;2.10;;;0.60;;
41633;SDS011;37274;51.150;4.808;2022-08-02T02:19:15;1.00;;;0.70;;
41633;SDS011;37274;51.150;4.808;2022-08-02T02:21:47;1.25;;;0.77;;
41633;SDS011;37274;51.150;4.808;2022-08-02T02:24:14;0.60;;;0.45;;
41633;SDS011;37274;51.150;4.808;2022-08-02T02:26:41;0.75;;;0.50;;
41633;SDS011;37274;51.150;4.808;2022-08-02T02:29:18;0.45;;;0.40;;
41633;SDS011;37274;51.150;4.808;2022-08-02T02:31:47;0.80;;;0.40;;
41633;SDS011;37274;51.150;4.808;2022-08-02T02:34:18;0.95;;;0.63;;
41633;SDS011;37274;51.150;4.808;2022-08-02T02:36:50;0.75;;;0.40;;
41633;SDS011;37274;51.150;4.808;2022-08-02T02:39:19;0.85;;;0.30;;
41633;SDS011;37274;51.150;4.808;2022-08-02T02:41:48;1.40;;;0.40;;
41633;SDS011;37274;51.150;4.808;2022-08-02T02:44:17;1.23;;;0.50;;
41633;SDS011;37274;51.150;4.808;2022-08-02T02:46:45;0.63;;;0.55;;
41633;SDS011;37274;51.150;4.808;2022-08-02T02:49:13;1.05;;;0.30;;
41633;SDS011;37274;51.150;4.808;2022-08-02T02:51:41;0.63;;;0.40;;
41633;SDS011;37274;51.150;4.808;2022-08-02T02:54:10;1.25;;;0.73;;
41633;SDS011;37274;51.150;4.808;2022-08-02T02:56:57;0.50;;;0.45;;
41633;SDS011;37274;51.150;4.808;2022-08-02T02:59:25;0.75;;;0.50;;
41633;SDS011;37274;51.150;4.808;2022-08-02T03:01:52;1.42;;;0.75;;
41633;SDS011;37274;51.150;4.808;2022-08-02T03:04:23;1.42;;;0.47;;
41633;SDS011;37274;51.150;4.808;2022-08-02T03:06:50;0.40;;;0.30;;
41633;SDS011;37274;51.150;4.808;2022-08-02T03:09:17;0.93;;;0.68;;
41633;SDS011;37274;51.150;4.808;2022-08-02T03:11:44;0.90;;;0.40;;
41633;SDS011;37274;51.150;4.808;2022-08-02T03:14:11;0.40;;;0.30;;
41633;SDS011;37274;51.150;4.808;2022-08-02T03:16:45;2.22;;;0.47;;
41633;SDS011;37274;51.150;4.808;2022-08-02T03:19:13;0.85;;;0.50;;
41633;SDS011;37274;51.150;4.808;2022-08-02T03:21:41;0.60;;;0.40;;
41633;SDS011;37274;51.150;4.808;2022-08-02T03:24:09;0.80;;;0.55;;
41633;SDS011;37274;51.150;4.808;2022-08-02T03:26:36;1.63;;;0.43;;
41633;SDS011;37274;51.150;4.808;2022-08-02T03:29:03;0.73;;;0.32;;
41633;SDS011;37274;51.150;4.808;2022-08-02T03:31:36;1.92;;;0.57;;
41633;SDS011;37274;51.150;4.808;2022-08-02T03:34:05;0.55;;;0.47;;
41633;SDS011;37274;51.150;4.808;2022-08-02T03:36:32;1.23;;;0.60;;
41633;SDS011;37274;51.150;4.808;2022-08-02T03:39:00;1.00;;;0.50;;
41633;SDS011;37274;51.150;4.808;2022-08-02T03:41:28;0.65;;;0.40;;
41633;SDS011;37274;51.150;4.808;2022-08-02T03:43:55;0.40;;;0.40;;
41633;SDS011;37274;51.150;4.808;2022-08-02T03:46:22;0.68;;;0.30;;
41633;SDS011;37274;51.150;4.808;2022-08-02T03:48:50;0.60;;;0.47;;
41633;SDS011;37274;51.150;4.808;2022-08-02T03:51:20;0.40;;;0.40;;
41633;SDS011;37274;51.150;4.808;2022-08-02T03:53:47;1.95;;;0.50;;
41633;SDS011;37274;51.150;4.808;2022-08-02T03:56:14;1.85;;;0.80;;
41633;SDS011;37274;51.150;4.808;2022-08-02T03:58:42;1.33;;;0.60;;
41633;SDS011;37274;51.150;4.808;2022-08-02T04:01:14;0.60;;;0.60;;
41633;SDS011;37274;51.150;4.808;2022-08-02T04:03:41;0.40;;;0.40;;
41633;SDS011;37274;51.150;4.808;2022-08-02T04:06:08;2.60;;;0.47;;
41633;SDS011;37274;51.150;4.808;2022-08-02T04:08:34;2.05;;;0.50;;
41633;SDS011;37274;51.150;4.808;2022-08-02T04:11:04;1.17;;;0.63;;
41633;SDS011;37274;51.150;4.808;2022-08-02T04:13:50;0.70;;;0.43;;
41633;SDS011;37274;51.150;4.808;2022-08-02T04:16:21;0.63;;;0.60;;
41633;SDS011;37274;51.150;4.808;2022-08-02T04:18:50;0.93;;;0.60;;
41633;SDS011;37274;51.150;4.808;2022-08-02T04:21:20;0.60;;;0.55;;
41633;SDS011;37274;51.150;4.808;2022-08-02T04:23:47;0.63;;;0.52;;
41633;SDS011;37274;51.150;4.808;2022-08-02T04:26:16;2.67;;;0.60;;
41633;SDS011;37274;51.150;4.808;2022-08-02T04:28:52;0.93;;;0.50;;
41633;SDS011;37274;51.150;4.808;2022-08-02T04:31:19;0.95;;;0.68;;
41633;SDS011;37274;51.150;4.808;2022-08-02T04:33:46;0.88;;;0.45;;
41633;SDS011;37274;51.150;4.808;2022-08-02T04:36:13;1.52;;;0.50;;
41633;SDS011;37274;51.150;4.808;2022-08-02T04:38:56;1.25;;;0.50;;
41633;SDS011;37274;51.150;4.808;2022-08-02T04:41:27;0.55;;;0.50;;
41633;SDS011;37274;51.150;4.808;2022-08-02T04:44:09;0.90;;;0.50;;
41633;SDS011;37274;51.150;4.808;2022-08-02T04:46:36;0.70;;;0.52;;
41633;SDS011;37274;51.150;4.808;2022-08-02T04:49:03;2.38;;;0.90;;
41633;SDS011;37274;51.150;4.808;2022-08-02T04:51:33;0.80;;;0.60;;
41633;SDS011;37274;51.150;4.808;2022-08-02T04:54:04;2.00;;;0.60;;
41633;SDS011;37274;51.150;4.808;2022-08-02T04:56:35;0.90;;;0.63;;
41633;SDS011;37274;51.150;4.808;2022-08-02T04:59:03;1.42;;;0.75;;
41633;SDS011;37274;51.150;4.808;2022-08-02T05:01:30;1.17;;;0.75;;
41633;SDS011;37274;51.150;4.808;2022-08-02T05:03:57;0.80;;;0.50;;
41633;SDS011;37274;51.150;4.808;2022-08-02T05:06:24;4.78;;;1.33;;
41633;SDS011;37274;51.150;4.808;2022-08-02T05:08:51;3.53;;;2.20;;
41633;SDS011;37274;51.150;4.808;2022-08-02T05:11:19;4.22;;;2.22;;
41633;SDS011;37274;51.150;4.808;2022-08-02T05:13:55;4.45;;;3.00;;
41633;SDS011;37274;51.150;4.808;2022-08-02T05:16:24;4.03;;;2.10;;
41633;SDS011;37274;51.150;4.808;2022-08-02T05:18:57;2.83;;;2.10;;
41633;SDS011;37274;51.150;4.808;2022-08-02T05:21:24;5.47;;;2.55;;
41633;SDS011;37274;51.150;4.808;2022-08-02T05:23:51;6.13;;;2.55;;
41633;SDS011;37274;51.150;4.808;2022-08-02T05:26:18;3.33;;;2.50;;
41633;SDS011;37274;51.150;4.808;2022-08-02T05:28:45;4.07;;;2.72;;
41633;SDS011;37274;51.150;4.808;2022-08-02T05:31:11;3.80;;;2.50;;
41633;SDS011;37274;51.150;4.808;2022-08-02T05:33:39;2.88;;;2.25;;
41633;SDS011;37274;51.150;4.808;2022-08-02T05:36:05;6.70;;;2.80;;
41633;SDS011;37274;51.150;4.808;2022-08-02T05:38:34;5.75;;;2.30;;
41633;SDS011;37274;51.150;4.808;2022-08-02T05:41:03;3.40;;;2.45;;
41633;SDS011;37274;51.150;4.808;2022-08-02T05:43:31;3.58;;;2.50;;
41633;SDS011;37274;51.150;4.808;2022-08-02T05:45:57;5.00;;;2.92;;
41633;SDS011;37274;51.150;4.808;2022-08-02T05:48:24;5.15;;;3.28;;
41633;SDS011;37274;51.150;4.808;2022-08-02T05:51:04;3.78;;;2.75;;
41633;SDS011;37274;51.150;4.808;2022-08-02T05:53:51;3.97;;;3.00;;
41633;SDS011;37274;51.150;4.808;2022-08-02T05:56:37;5.53;;;2.33;;
41633;SDS011;37274;51.150;4.808;2022-08-02T05:59:28;3.28;;;2.70;;
41633;SDS011;37274;51.150;4.808;2022-08-02T06:02:01;4.93;;;2.65;;
41633;SDS011;37274;51.150;4.808;2022-08-02T06:04:32;3.47;;;3.05;;
41633;SDS011;37274;51.150;4.808;2022-08-02T06:07:07;5.05;;;2.83;;
41633;SDS011;37274;51.150;4.808;2022-08-02T06:09:35;4.28;;;2.65;;
41633;SDS011;37274;51.150;4.808;2022-08-02T06:12:04;3.30;;;2.60;;
41633;SDS011;37274;51.150;4.808;2022-08-02T06:14:31;4.38;;;2.63;;
41633;SDS011;37274;51.150;4.808;2022-08-02T06:17:07;6.53;;;2.58;;
41633;SDS011;37274;51.150;4.808;2022-08-02T06:19:37;4.13;;;2.40;;
41633;SDS011;37274;51.150;4.808;2022-08-02T06:22:18;3.33;;;2.45;;
41633;SDS011;37274;51.150;4.808;2022-08-02T06:25:06;6.18;;;2.97;;
41633;SDS011;37274;51.150;4.808;2022-08-02T06:27:53;3.05;;;2.38;;
41633;SDS011;37274;51.150;4.808;2022-08-02T06:30:20;3.50;;;2.33;;
41633;SDS011;37274;51.150;4.808;2022-08-02T06:32:49;3.55;;;2.35;;
41633;SDS011;37274;51.150;4.808;2022-08-02T06:35:17;4.35;;;2.72;;
41633;SDS011;37274;51.150;4.808;2022-08-02T06:37:51;2.72;;;2.28;;
41633;SDS011;37274;51.150;4.808;2022-08-02T06:45:56;2.75;;;2.35;;
41633;SDS011;37274;51.150;4.808;2022-08-02T06:48:42;6.13;;;3.65;;
41633;SDS011;37274;51.150;4.808;2022-08-02T06:51:09;3.45;;;2.65;;
41633;SDS011;37274;51.150;4.808;2022-08-02T06:53:36;2.53;;;2.17;;
41633;SDS011;37274;51.150;4.808;2022-08-02T06:56:03;3.53;;;2.60;;
41633;SDS011;37274;51.150;4.808;2022-08-02T06:58:32;4.05;;;2.67;;
41633;SDS011;37274;51.150;4.808;2022-08-02T07:00:59;4.38;;;2.53;;
41633;SDS011;37274;51.150;4.808;2022-08-02T07:03:25;2.83;;;2.30;;
41633;SDS011;37274;51.150;4.808;2022-08-02T07:05:52;5.00;;;2.60;;
41633;SDS011;37274;51.150;4.808;2022-08-02T07:08:19;3.70;;;2.63;;
41633;SDS011;37274;51.150;4.808;2022-08-02T07:10:46;3.20;;;2.80;;
41633;SDS011;37274;51.150;4.808;2022-08-02T07:13:13;2.42;;;2.22;;
41633;SDS011;37274;51.150;4.808;2022-08-02T07:15:40;3.78;;;2.47;;
41633;SDS011;37274;51.150;4.808;2022-08-02T07:18:14;3.72;;;1.88;;
41633;SDS011;37274;51.150;4.808;2022-08-02T07:20:42;4.18;;;2.60;;
41633;SDS011;37274;51.150;4.808;2022-08-02T07:23:09;3.40;;;2.17;;
41633;SDS011;37274;51.150;4.808;2022-08-02T07:25:36;3.38;;;1.90;;
41633;SDS011;37274;51.150;4.808;2022-08-02T07:28:23;2.05;;;1.85;;
41633;SDS011;37274;51.150;4.808;2022-08-02T07:30:50;3.42;;;2.00;;
41633;SDS011;37274;51.150;4.808;2022-08-02T07:33:18;4.65;;;1.83;;
41633;SDS011;37274;51.150;4.808;2022-08-02T07:36:04;6.93;;;2.10;;
41633;SDS011;37274;51.150;4.808;2022-08-02T07:38:34;2.22;;;1.42;;
41633;SDS011;37274;51.150;4.808;2022-08-02T07:41:02;5.13;;;1.38;;
41633;SDS011;37274;51.150;4.808;2022-08-02T07:43:29;4.40;;;1.77;;
41633;SDS011;37274;51.150;4.808;2022-08-02T07:45:56;1.25;;;1.13;;
41633;SDS011;37274;51.150;4.808;2022-08-02T07:48:26;3.10;;;1.38;;
41633;SDS011;37274;51.150;4.808;2022-08-02T07:50:53;2.50;;;1.35;;
41633;SDS011;37274;51.150;4.808;2022-08-02T07:53:20;1.05;;;0.95;;
41633;SDS011;37274;51.150;4.808;2022-08-02T07:56:06;1.52;;;1.23;;
41633;SDS011;37274;51.150;4.808;2022-08-02T07:58:33;3.08;;;1.48;;
41633;SDS011;37274;51.150;4.808;2022-08-02T08:01:00;2.70;;;1.33;;
41633;SDS011;37274;51.150;4.808;2022-08-02T08:03:26;1.48;;;0.90;;
41633;SDS011;37274;51.150;4.808;2022-08-02T08:05:53;2.03;;;1.42;;
41633;SDS011;37274;51.150;4.808;2022-08-02T08:08:20;2.65;;;0.82;;
41633;SDS011;37274;51.150;4.808;2022-08-02T08:10:47;3.10;;;1.00;;
41633;SDS011;37274;51.150;4.808;2022-08-02T08:13:14;3.65;;;1.02;;
41633;SDS011;37274;51.150;4.808;2022-08-02T08:15:41;2.05;;;0.98;;
41633;SDS011;37274;51.150;4.808;2022-08-02T08:18:17;1.92;;;1.15;;
41633;SDS011;37274;51.150;4.808;2022-08-02T08:20:44;2.30;;;1.05;;
41633;SDS011;37274;51.150;4.808;2022-08-02T08:23:11;0.70;;;0.68;;
41633;SDS011;37274;51.150;4.808;2022-08-02T08:25:38;1.90;;;0.80;;
41633;SDS011;37274;51.150;4.808;2022-08-02T08:28:06;1.70;;;1.08;;
41633;SDS011;37274;51.150;4.808;2022-08-02T08:30:33;0.68;;;0.68;;
41633;SDS011;37274;51.150;4.808;2022-08-02T08:33:00;1.27;;;0.77;;
41633;SDS011;37274;51.150;4.808;2022-08-02T08:35:27;1.40;;;0.77;;
41633;SDS011;37274;51.150;4.808;2022-08-02T08:37:54;0.73;;;0.63;;
41633;SDS011;37274;51.150;4.808;2022-08-02T08:40:20;2.13;;;0.95;;
41633;SDS011;37274;51.150;4.808;2022-08-02T08:42:47;1.13;;;0.85;;
41633;SDS011;37274;51.150;4.808;2022-08-02T08:45:14;1.65;;;0.88;;
41633;SDS011;37274;51.150;4.808;2022-08-02T08:47:43;1.00;;;0.60;;
41633;SDS011;37274;51.150;4.808;2022-08-02T08:50:19;0.68;;;0.68;;
41633;SDS011;37274;51.150;4.808;2022-08-02T08:53:00;0.63;;;0.57;;
41633;SDS011;37274;51.150;4.808;2022-08-02T08:55:30;4.15;;;0.65;;
41633;SDS011;37274;51.150;4.808;2022-08-02T08:57:58;1.02;;;0.60;;
41633;SDS011;37274;51.150;4.808;2022-08-02T09:00:26;1.02;;;0.70;;
41633;SDS011;37274;51.150;4.808;2022-08-02T09:02:53;0.45;;;0.45;;
41633;SDS011;37274;51.150;4.808;2022-08-02T09:05:19;1.10;;;0.77;;
41633;SDS011;37274;51.150;4.808;2022-08-02T09:07:50;1.90;;;0.60;;
41633;SDS011;37274;51.150;4.808;2022-08-02T09:13:23;1.02;;;0.45;;
41633;SDS011;37274;51.150;4.808;2022-08-02T09:16:11;2.70;;;0.50;;
41633;SDS011;37274;51.150;4.808;2022-08-02T09:18:41;3.85;;;0.50;;
41633;SDS011;37274;51.150;4.808;2022-08-02T09:21:10;2.95;;;0.75;;
41633;SDS011;37274;51.150;4.808;2022-08-02T09:23:47;2.95;;;0.52;;
41633;SDS011;37274;51.150;4.808;2022-08-02T09:26:16;0.98;;;0.50;;
41633;SDS011;37274;51.150;4.808;2022-08-02T09:28:45;1.10;;;0.63;;
41633;SDS011;37274;51.150;4.808;2022-08-02T09:31:14;1.05;;;0.50;;
41633;SDS011;37274;51.150;4.808;2022-08-02T09:33:58;1.10;;;0.45;;
41633;SDS011;37274;51.150;4.808;2022-08-02T09:36:27;2.65;;;0.45;;
41633;SDS011;37274;51.150;4.808;2022-08-02T09:39:03;2.45;;;0.68;;
41633;SDS011;37274;51.150;4.808;2022-08-02T09:41:32;0.70;;;0.50;;
41633;SDS011;37274;51.150;4.808;2022-08-02T09:44:00;0.70;;;0.40;;
41633;SDS011;37274;51.150;4.808;2022-08-02T09:46:36;0.82;;;0.55;;
41633;SDS011;37274;51.150;4.808;2022-08-02T09:51:34;0.77;;;0.40;;
41633;SDS011;37274;51.150;4.808;2022-08-02T09:54:06;2.40;;;0.30;;
41633;SDS011;37274;51.150;4.808;2022-08-02T09:56:39;0.20;;;0.20;;
41633;SDS011;37274;51.150;4.808;2022-08-02T09:59:13;1.52;;;0.38;;
41633;SDS011;37274;51.150;4.808;2022-08-02T10:01:42;0.68;;;0.30;;
41633;SDS011;37274;51.150;4.808;2022-08-02T10:04:25;1.40;;;0.52;;
41633;SDS011;37274;51.150;4.808;2022-08-02T10:06:55;1.60;;;0.30;;
41633;SDS011;37274;51.150;4.808;2022-08-02T10:09:25;1.15;;;0.60;;
41633;SDS011;37274;51.150;4.808;2022-08-02T10:11:54;0.95;;;0.45;;
41633;SDS011;37274;51.150;4.808;2022-08-02T10:14:21;0.63;;;0.50;;
41633;SDS011;37274;51.150;4.808;2022-08-02T10:16:48;2.08;;;0.30;;
41633;SDS011;37274;51.150;4.808;2022-08-02T10:19:15;4.28;;;0.90;;
41633;SDS011;37274;51.150;4.808;2022-08-02T10:22:09;2.58;;;0.40;;
41633;SDS011;37274;51.150;4.808;2022-08-02T10:24:38;0.93;;;0.50;;
41633;SDS011;37274;51.150;4.808;2022-08-02T10:27:15;1.17;;;0.60;;
41633;SDS011;37274;51.150;4.808;2022-08-02T10:29:46;0.80;;;0.40;;
41633;SDS011;37274;51.150;4.808;2022-08-02T10:35:03;4.93;;;0.63;;
41633;SDS011;37274;51.150;4.808;2022-08-02T10:37:54;2.55;;;0.50;;
41633;SDS011;37274;51.150;4.808;2022-08-02T10:40:23;2.20;;;0.43;;
41633;SDS011;37274;51.150;4.808;2022-08-02T10:42:52;1.08;;;0.52;;
41633;SDS011;37274;51.150;4.808;2022-08-02T10:45:21;1.80;;;0.60;;
41633;SDS011;37274;51.150;4.808;2022-08-02T10:47:58;2.35;;;0.50;;
41633;SDS011;37274;51.150;4.808;2022-08-02T10:53:45;2.80;;;0.60;;
41633;SDS011;37274;51.150;4.808;2022-08-02T10:56:04;2.45;;;0.40;;
41633;SDS011;37274;51.150;4.808;2022-08-02T10:58:34;1.25;;;0.52;;
41633;SDS011;37274;51.150;4.808;2022-08-02T11:01:04;0.77;;;0.70;;
41633;SDS011;37274;51.150;4.808;2022-08-02T11:03:48;0.70;;;0.50;;
41633;SDS011;37274;51.150;4.808;2022-08-02T11:06:15;1.10;;;0.50;;
41633;SDS011;37274;51.150;4.808;2022-08-02T11:11:59;1.08;;;0.45;;
41633;SDS011;37274;51.150;4.808;2022-08-02T11:14:27;0.63;;;0.40;;
41633;SDS011;37274;51.150;4.808;2022-08-02T11:19:25;0.55;;;0.40;;
41633;SDS011;37274;51.150;4.808;2022-08-02T11:22:05;1.48;;;0.63;;
41633;SDS011;37274;51.150;4.808;2022-08-02T11:24:34;0.98;;;0.60;;
41633;SDS011;37274;51.150;4.808;2022-08-02T11:27:03;2.80;;;0.57;;
41633;SDS011;37274;51.150;4.808;2022-08-02T11:29:38;2.22;;;0.50;;
41633;SDS011;37274;51.150;4.808;2022-08-02T11:32:23;0.85;;;0.30;;
41633;SDS011;37274;51.150;4.808;2022-08-02T11:37:30;1.92;;;0.45;;
41633;SDS011;37274;51.150;4.808;2022-08-02T11:40:10;2.35;;;0.50;;
41633;SDS011;37274;51.150;4.808;2022-08-02T11:42:45;1.45;;;0.60;;
41633;SDS011;37274;51.150;4.808;2022-08-02T11:45:16;2.05;;;0.50;;
41633;SDS011;37274;51.150;4.808;2022-08-02T11:47:48;4.75;;;0.70;;
41633;SDS011;37274;51.150;4.808;2022-08-02T11:50:20;2.78;;;0.50;;
41633;SDS011;37274;51.150;4.808;2022-08-02T11:52:55;1.88;;;0.47;;
41633;SDS011;37274;51.150;4.808;2022-08-02T11:55:26;1.73;;;0.65;;
41633;SDS011;37274;51.150;4.808;2022-08-02T11:58:00;0.40;;;0.28;;
41633;SDS011;37274;51.150;4.808;2022-08-02T12:00:31;2.17;;;0.40;;
41633;SDS011;37274;51.150;4.808;2022-08-02T12:02:57;2.05;;;0.65;;
41633;SDS011;37274;51.150;4.808;2022-08-02T12:05:24;3.15;;;0.50;;
41633;SDS011;37274;51.150;4.808;2022-08-02T12:08:14;0.50;;;0.35;;
41633;SDS011;37274;51.150;4.808;2022-08-02T12:10:47;3.65;;;0.60;;
41633;SDS011;37274;51.150;4.808;2022-08-02T12:13:14;3.40;;;0.50;;
41633;SDS011;37274;51.150;4.808;2022-08-02T12:15:42;0.65;;;0.60;;
41633;SDS011;37274;51.150;4.808;2022-08-02T12:18:16;1.10;;;0.60;;
41633;SDS011;37274;51.150;4.808;2022-08-02T12:21:18;0.50;;;0.50;;
41633;SDS011;37274;51.150;4.808;2022-08-02T12:23:52;3.03;;;0.60;;
41633;SDS011;37274;51.150;4.808;2022-08-02T12:26:26;2.08;;;0.60;;
41633;SDS011;37274;51.150;4.808;2022-08-02T12:28:54;3.90;;;0.70;;
41633;SDS011;37274;51.150;4.808;2022-08-02T12:31:36;12.80;;;0.95;;
41633;SDS011;37274;51.150;4.808;2022-08-02T12:34:22;4.32;;;0.63;;
41633;SDS011;37274;51.150;4.808;2022-08-02T12:37:07;3.92;;;0.60;;
41633;SDS011;37274;51.150;4.808;2022-08-02T12:39:39;4.43;;;0.80;;
41633;SDS011;37274;51.150;4.808;2022-08-02T12:42:08;4.47;;;0.65;;
41633;SDS011;37274;51.150;4.808;2022-08-02T12:44:37;4.95;;;0.73;;
41633;SDS011;37274;51.150;4.808;2022-08-02T12:47:16;6.32;;;0.73;;
41633;SDS011;37274;51.150;4.808;2022-08-02T12:50:09;1.10;;;0.57;;
41633;SDS011;37274;51.150;4.808;2022-08-02T12:52:37;0.63;;;0.40;;
41633;SDS011;37274;51.150;4.808;2022-08-02T12:55:17;1.85;;;0.40;;
41633;SDS011;37274;51.150;4.808;2022-08-02T12:57:56;0.93;;;0.50;;
41633;SDS011;37274;51.150;4.808;2022-08-02T13:00:34;3.70;;;0.68;;
41633;SDS011;37274;51.150;4.808;2022-08-02T13:03:02;2.03;;;0.65;;
41633;SDS011;37274;51.150;4.808;2022-08-02T13:05:36;0.70;;;0.52;;
41633;SDS011;37274;51.150;4.808;2022-08-02T13:08:23;1.75;;;0.63;;
41633;SDS011;37274;51.150;4.808;2022-08-02T13:10:49;4.20;;;0.77;;
41633;SDS011;37274;51.150;4.808;2022-08-02T13:13:16;2.10;;;0.70;;
41633;SDS011;37274;51.150;4.808;2022-08-02T13:15:43;0.93;;;0.60;;
41633;SDS011;37274;51.150;4.808;2022-08-02T13:18:16;1.42;;;0.50;;
41633;SDS011;37274;51.150;4.808;2022-08-02T13:20:43;3.55;;;0.95;;
41633;SDS011;37274;51.150;4.808;2022-08-02T13:23:11;1.25;;;0.50;;
41633;SDS011;37274;51.150;4.808;2022-08-02T13:25:46;0.75;;;0.40;;
41633;SDS011;37274;51.150;4.808;2022-08-02T13:28:18;0.47;;;0.47;;
41633;SDS011;37274;51.150;4.808;2022-08-02T13:30:44;1.42;;;0.57;;
41633;SDS011;37274;51.150;4.808;2022-08-02T13:33:12;1.70;;;0.60;;
41633;SDS011;37274;51.150;4.808;2022-08-02T13:35:40;1.02;;;0.40;;
41633;SDS011;37274;51.150;4.808;2022-08-02T13:38:07;0.38;;;0.38;;
41633;SDS011;37274;51.150;4.808;2022-08-02T13:40:33;1.42;;;0.65;;
41633;SDS011;37274;51.150;4.808;2022-08-02T13:43:29;1.13;;;0.47;;
41633;SDS011;37274;51.150;4.808;2022-08-02T13:46:16;0.85;;;0.40;;
41633;SDS011;37274;51.150;4.808;2022-08-02T13:48:54;1.02;;;0.45;;
41633;SDS011;37274;51.150;4.808;2022-08-02T13:51:21;0.70;;;0.40;;
41633;SDS011;37274;51.150;4.808;2022-08-02T13:53:48;1.10;;;0.28;;
41633;SDS011;37274;51.150;4.808;2022-08-02T13:56:14;0.52;;;0.30;;
41633;SDS011;37274;51.150;4.808;2022-08-02T13:58:41;1.40;;;0.38;;
41633;SDS011;37274;51.150;4.808;2022-08-02T14:01:08;0.55;;;0.38;;
41633;SDS011;37274;51.150;4.808;2022-08-02T14:03:34;0.47;;;0.40;;
41633;SDS011;37274;51.150;4.808;2022-08-02T14:06:21;0.90;;;0.50;;
41633;SDS011;37274;51.150;4.808;2022-08-02T14:08:48;0.85;;;0.40;;
41633;SDS011;37274;51.150;4.808;2022-08-02T14:11:15;1.50;;;0.40;;
41633;SDS011;37274;51.150;4.808;2022-08-02T14:13:42;1.10;;;0.57;;
41633;SDS011;37274;51.150;4.808;2022-08-02T14:16:09;1.52;;;0.52;;
41633;SDS011;37274;51.150;4.808;2022-08-02T14:18:36;0.93;;;0.70;;
41633;SDS011;37274;51.150;4.808;2022-08-02T14:21:03;1.25;;;0.50;;
41633;SDS011;37274;51.150;4.808;2022-08-02T14:23:29;1.38;;;0.50;;
41633;SDS011;37274;51.150;4.808;2022-08-02T14:26:16;1.27;;;0.33;;
41633;SDS011;37274;51.150;4.808;2022-08-02T14:28:53;1.15;;;0.60;;
41633;SDS011;37274;51.150;4.808;2022-08-02T14:31:20;1.90;;;0.40;;
41633;SDS011;37274;51.150;4.808;2022-08-02T14:33:47;1.95;;;0.50;;
41633;SDS011;37274;51.150;4.808;2022-08-02T14:36:13;1.75;;;0.55;;
41633;SDS011;37274;51.150;4.808;2022-08-02T14:38:53;1.40;;;0.50;;
41633;SDS011;37274;51.150;4.808;2022-08-02T14:41:20;0.70;;;0.40;;
41633;SDS011;37274;51.150;4.808;2022-08-02T14:43:46;0.90;;;0.50;;
41633;SDS011;37274;51.150;4.808;2022-08-02T14:46:31;0.90;;;0.45;;
41633;SDS011;37274;51.150;4.808;2022-08-02T14:49:03;1.50;;;0.30;;
41633;SDS011;37274;51.150;4.808;2022-08-02T14:51:30;1.98;;;0.52;;
41633;SDS011;37274;51.150;4.808;2022-08-02T14:53:58;0.50;;;0.47;;
41633;SDS011;37274;51.150;4.808;2022-08-02T14:56:28;1.73;;;0.80;;
41633;SDS011;37274;51.150;4.808;2022-08-02T14:58:55;0.93;;;0.47;;
41633;SDS011;37274;51.150;4.808;2022-08-02T15:01:22;3.40;;;0.65;;
41633;SDS011;37274;51.150;4.808;2022-08-02T15:03:51;0.73;;;0.50;;
41633;SDS011;37274;51.150;4.808;2022-08-02T15:06:18;0.98;;;0.50;;
41633;SDS011;37274;51.150;4.808;2022-08-02T15:08:45;1.00;;;0.65;;
41633;SDS011;37274;51.150;4.808;2022-08-02T15:11:11;0.82;;;0.47;;
41633;SDS011;37274;51.150;4.808;2022-08-02T15:13:38;1.23;;;0.45;;
41633;SDS011;37274;51.150;4.808;2022-08-02T15:16:07;2.67;;;0.50;;
41633;SDS011;37274;51.150;4.808;2022-08-02T15:18:34;1.65;;;0.20;;
41633;SDS011;37274;51.150;4.808;2022-08-02T15:21:01;5.60;;;0.82;;
41633;SDS011;37274;51.150;4.808;2022-08-02T15:26:15;2.20;;;0.70;;
41633;SDS011;37274;51.150;4.808;2022-08-02T15:28:42;0.93;;;0.47;;
41633;SDS011;37274;51.150;4.808;2022-08-02T15:31:08;1.00;;;0.40;;
41633;SDS011;37274;51.150;4.808;2022-08-02T15:33:47;2.88;;;0.60;;
41633;SDS011;37274;51.150;4.808;2022-08-02T15:36:15;2.03;;;0.30;;
41633;SDS011;37274;51.150;4.808;2022-08-02T15:38:43;0.82;;;0.38;;
41633;SDS011;37274;51.150;4.808;2022-08-02T15:41:09;1.33;;;0.70;;
41633;SDS011;37274;51.150;4.808;2022-08-02T15:43:37;1.30;;;0.50;;
41633;SDS011;37274;51.150;4.808;2022-08-02T15:46:23;1.00;;;0.70;;
41633;SDS011;37274;51.150;4.808;2022-08-02T15:48:56;1.75;;;0.50;;
41633;SDS011;37274;51.150;4.808;2022-08-02T15:51:24;0.88;;;0.60;;